createdAt,value
2018-07-10T00:00:42.050Z,94986.98
2018-07-10T00:03:08.061Z,94986.41
2018-07-10T00:05:34.148Z,94986.58
2018-07-10T00:08:00.189Z,94983.25
2018-07-10T00:10:26.198Z,94985.03
2018-07-10T00:12:52.206Z,94980.08
2018-07-10T00:15:18.230Z,94977.92
2018-07-10T00:17:44.324Z,94974.36
2018-07-10T00:20:10.341Z,94969.81
2018-07-10T00:22:36.366Z,94973.78
2018-07-10T00:25:02.381Z,94965.67
2018-07-10T00:27:28.470Z,94963.72
2018-07-10T00:29:54.483Z,94958.36
2018-07-10T00:32:20.503Z,94955.03
2018-07-10T00:34:46.536Z,94950.66
2018-07-10T00:37:12.548Z,94951.86
2018-07-10T00:39:38.561Z,94944.56
2018-07-10T00:42:04.590Z,94942.38
2018-07-10T00:44:30.604Z,94940.63
2018-07-10T00:46:56.614Z,94942.38
2018-07-10T00:49:22.624Z,94939.24
2018-07-10T00:51:48.629Z,94946.14
2018-07-10T00:54:14.658Z,94942.98
2018-07-10T00:56:40.668Z,94941.20
2018-07-10T00:59:06.674Z,94930.15
2018-07-10T01:01:32.689Z,94934.87
2018-07-10T01:03:58.700Z,94929.75
2018-07-10T01:06:24.735Z,94926.19
2018-07-10T01:08:50.747Z,94927.16
2018-07-10T01:11:16.763Z,94928.37
2018-07-10T01:13:42.759Z,94930.73
2018-07-10T01:16:08.771Z,94924.80
2018-07-10T01:18:34.800Z,94929.55
2018-07-10T01:21:00.827Z,94930.33
2018-07-10T01:23:26.830Z,94929.92
2018-07-10T01:25:52.840Z,94929.92
2018-07-10T01:28:18.847Z,94933.28
2018-07-10T01:30:44.853Z,94929.14
2018-07-10T01:33:10.868Z,94926.38
2018-07-10T01:35:36.884Z,94933.46
2018-07-10T01:38:02.906Z,94937.60
2018-07-10T01:40:28.916Z,94935.41
2018-07-10T01:42:54.939Z,94937.80
2018-07-10T01:45:20.966Z,94931.87
2018-07-10T01:47:47.081Z,94944.11
2018-07-10T01:50:13.416Z,94941.14
2018-07-10T01:52:39.982Z,94938.38
2018-07-10T01:55:06.028Z,94938.78
2018-07-10T01:57:32.207Z,94938.38
2018-07-10T01:59:58.340Z,94937.41
2018-07-10T02:02:24.363Z,94929.70
2018-07-10T02:04:50.383Z,94930.67
2018-07-10T02:07:16.449Z,94933.44
2018-07-10T02:09:42.450Z,94930.09
2018-07-10T02:12:08.472Z,94934.23
2018-07-10T02:14:34.521Z,94933.03
2018-07-10T02:17:00.537Z,94930.27
2018-07-10T02:19:26.579Z,94933.64
2018-07-10T02:21:52.601Z,94927.11
2018-07-10T02:24:18.620Z,94927.11
2018-07-10T02:26:44.630Z,94928.48
2018-07-10T02:29:10.631Z,94926.73
2018-07-10T02:31:36.638Z,94927.51
2018-07-10T02:34:02.670Z,94926.13
2018-07-10T02:36:28.665Z,94927.71
2018-07-10T02:38:54.671Z,94921.79
2018-07-10T02:41:20.687Z,94923.57
2018-07-10T02:43:46.723Z,94925.13
2018-07-10T02:46:12.751Z,94922.94
2018-07-10T02:48:38.755Z,94928.86
2018-07-10T02:51:04.756Z,94924.31
2018-07-10T02:53:30.769Z,94929.06
2018-07-10T02:55:56.772Z,94927.48
2018-07-10T02:58:22.780Z,94930.45
2018-07-10T03:00:48.786Z,94929.84
2018-07-10T03:03:14.788Z,94923.55
2018-07-10T03:05:40.839Z,94929.06
2018-07-10T03:08:06.850Z,94937.14
2018-07-10T03:10:32.851Z,94937.75
2018-07-10T03:12:58.850Z,94936.17
2018-07-10T03:15:24.858Z,94937.75
2018-07-10T03:17:50.873Z,94942.27
2018-07-10T03:20:16.881Z,94945.42
2018-07-10T03:22:43.080Z,94946.41
2018-07-10T03:25:09.079Z,94946.41
2018-07-10T03:27:35.085Z,94950.38
2018-07-10T03:30:01.106Z,94944.05
2018-07-10T03:32:27.115Z,94948.19
2018-07-10T03:34:53.121Z,94941.69
2018-07-10T03:37:19.124Z,94949.97
2018-07-10T03:39:45.140Z,94944.85
2018-07-10T03:42:11.148Z,94944.45
2018-07-10T03:44:37.168Z,94947.04
2018-07-10T03:47:03.163Z,94945.45
2018-07-10T03:49:29.178Z,94942.52
2018-07-10T03:51:55.215Z,94940.56
2018-07-10T03:54:21.215Z,94942.31
2018-07-10T03:56:47.231Z,94941.34
2018-07-10T03:59:13.234Z,94942.34
2018-07-10T04:01:39.253Z,94944.94
2018-07-10T04:04:05.244Z,94950.05
2018-07-10T04:06:31.250Z,94948.27
2018-07-10T04:08:57.329Z,94947.87
2018-07-10T04:11:23.283Z,94949.08
2018-07-10T04:13:49.308Z,94949.08
2018-07-10T04:16:15.321Z,94949.48
2018-07-10T04:18:41.330Z,94952.04
2018-07-10T04:21:07.328Z,94956.98
2018-07-10T04:23:33.336Z,94956.01
2018-07-10T04:25:59.345Z,94954.02
2018-07-10T04:28:26.269Z,94957.56
2018-07-10T04:30:52.568Z,94958.20
2018-07-10T04:33:18.653Z,94953.45
2018-07-10T04:35:44.717Z,94957.59
2018-07-10T04:38:10.752Z,94957.79
2018-07-10T04:40:36.785Z,94963.72
2018-07-10T04:43:02.854Z,94969.64
2018-07-10T04:45:29.204Z,94965.67
2018-07-10T04:47:55.413Z,94969.81
2018-07-10T04:50:21.900Z,94966.65
2018-07-10T04:52:48.049Z,94970.59
2018-07-10T04:55:14.216Z,94967.83
2018-07-10T04:57:40.548Z,94967.42
2018-07-10T05:00:08.949Z,94971.57
2018-07-10T05:02:35.058Z,94970.36
2018-07-10T05:05:01.093Z,94979.85
2018-07-10T05:07:27.597Z,94978.64
2018-07-10T05:09:53.977Z,94979.63
2018-07-10T05:12:20.109Z,94975.48
2018-07-10T05:14:46.276Z,94986.16
2018-07-10T05:17:12.304Z,94992.05
2018-07-10T05:19:39.241Z,94991.84
2018-07-10T05:22:05.825Z,94988.52
2018-07-10T05:24:31.950Z,94994.00
2018-07-10T05:27:01.482Z,94993.60
2018-07-10T05:29:27.640Z,94994.58
2018-07-10T05:31:53.719Z,95001.08
2018-07-10T05:34:19.850Z,94997.14
2018-07-10T05:36:45.967Z,95000.87
2018-07-10T05:39:12.268Z,94992.19
2018-07-10T05:41:38.274Z,94998.12
2018-07-10T05:44:38.181Z,94994.95
2018-07-10T05:47:04.409Z,95002.43
2018-07-10T05:49:30.653Z,94995.53
2018-07-10T05:51:57.215Z,95000.65
2018-07-10T05:54:23.330Z,94999.27
2018-07-10T05:56:49.345Z,94995.73
2018-07-10T05:59:18.142Z,94995.13
2018-07-10T06:01:44.614Z,94999.47
2018-07-10T06:04:10.692Z,94996.70
2018-07-10T06:06:36.743Z,94998.66
2018-07-10T06:09:02.771Z,95001.63
2018-07-10T06:11:28.803Z,94999.06
2018-07-10T06:13:54.814Z,95000.84
2018-07-10T06:16:21.308Z,95004.59
2018-07-10T06:18:47.302Z,95002.00
2018-07-10T06:21:13.492Z,94998.46
2018-07-10T06:23:40.106Z,94996.68
2018-07-10T06:26:06.109Z,94995.70
2018-07-10T06:28:32.122Z,94998.83
2018-07-10T06:30:58.189Z,94997.66
2018-07-10T06:33:24.879Z,94995.88
2018-07-10T06:35:50.977Z,94989.95
2018-07-10T06:38:17.125Z,94995.70
2018-07-10T06:40:43.144Z,94999.20
2018-07-10T06:43:09.150Z,94998.80
2018-07-10T06:45:35.690Z,95007.48
2018-07-10T06:48:01.821Z,95001.97
2018-07-10T06:50:27.979Z,95003.95
2018-07-10T06:52:54.257Z,95002.17
2018-07-10T06:55:20.032Z,95002.95
2018-07-10T06:57:46.914Z,95003.15
2018-07-10T07:00:12.954Z,95000.39
2018-07-10T07:02:38.989Z,95001.36
2018-07-10T07:05:05.001Z,94998.03
2018-07-10T07:07:31.006Z,95001.20
2018-07-10T07:09:57.009Z,94997.05
2018-07-10T07:12:23.011Z,94995.67
2018-07-10T07:14:49.116Z,94996.25
2018-07-10T07:17:15.191Z,94995.06
2018-07-10T07:19:41.219Z,95003.75
2018-07-10T07:22:07.224Z,94993.31
2018-07-10T07:24:33.265Z,94992.53
2018-07-10T07:26:59.465Z,94993.31
2018-07-10T07:29:31.538Z,94992.94
2018-07-10T07:31:57.537Z,94990.75
2018-07-10T07:34:23.567Z,94986.21
2018-07-10T07:36:49.585Z,94995.88
2018-07-10T07:39:15.596Z,94991.33
2018-07-10T07:41:41.784Z,94992.30
2018-07-10T07:44:07.942Z,94991.53
2018-07-10T07:46:34.404Z,94991.53
2018-07-10T07:49:00.412Z,94991.91
2018-07-10T07:51:26.553Z,94994.87
2018-07-10T07:53:52.774Z,94987.97
2018-07-10T07:56:19.285Z,94992.91
2018-07-10T07:58:45.840Z,94994.87
2018-07-10T08:01:12.297Z,94996.65
2018-07-10T08:03:38.296Z,94990.73
2018-07-10T08:06:04.338Z,94994.27
2018-07-10T08:08:30.368Z,94994.06
2018-07-10T08:10:56.421Z,94989.34
2018-07-10T08:13:22.555Z,94989.52
2018-07-10T08:15:48.574Z,94991.88
2018-07-10T08:18:14.616Z,94995.64
2018-07-10T08:20:40.937Z,94992.48
2018-07-10T08:23:09.906Z,94998.78
2018-07-10T08:25:39.540Z,94999.78
2018-07-10T08:28:03.375Z,95000.77
2018-07-10T08:30:29.505Z,95001.73
2018-07-10T08:32:56.101Z,95001.16
2018-07-10T08:35:24.133Z,95007.84
2018-07-10T08:37:48.761Z,95004.67
2018-07-10T08:40:14.776Z,95003.69
2018-07-10T08:42:40.800Z,95002.72
2018-07-10T08:45:06.857Z,94999.95
2018-07-10T08:47:32.910Z,94994.84
2018-07-10T08:49:58.932Z,94995.81
2018-07-10T08:52:25.055Z,94996.80
2018-07-10T08:54:51.076Z,94987.94
2018-07-10T08:57:17.076Z,94994.44
2018-07-10T08:59:43.177Z,94980.80
2018-07-10T09:02:09.128Z,94978.65
2018-07-10T09:04:35.192Z,94978.45
2018-07-10T09:07:01.201Z,94971.55
2018-07-10T09:09:27.224Z,94973.73
2018-07-10T09:11:53.264Z,94967.80
2018-07-10T09:14:19.284Z,94969.99
2018-07-10T09:16:45.294Z,94973.73
2018-07-10T09:19:11.327Z,94974.30
2018-07-10T09:21:37.400Z,94980.80
2018-07-10T09:24:03.411Z,94983.16
2018-07-10T09:26:29.500Z,94980.40
2018-07-10T09:28:55.532Z,94985.55
2018-07-10T09:31:21.562Z,94983.77
2018-07-10T09:33:47.621Z,94985.72
2018-07-10T09:36:13.610Z,94988.88
2018-07-10T09:38:40.199Z,94986.52
2018-07-10T09:41:06.529Z,94983.94
2018-07-10T09:43:32.641Z,94980.77
2018-07-10T09:45:58.675Z,94978.24
2018-07-10T09:48:24.872Z,94978.24
2018-07-10T09:50:50.988Z,94965.02
2018-07-10T09:53:16.999Z,94970.94
2018-07-10T09:55:43.064Z,94969.73
2018-07-10T09:58:09.164Z,94956.91
2018-07-10T10:00:35.220Z,94958.69
2018-07-10T10:03:01.458Z,94953.37
2018-07-10T10:05:27.517Z,94965.59
2018-07-10T10:07:53.528Z,94960.07
2018-07-10T10:10:19.584Z,94957.91
2018-07-10T10:12:45.602Z,94962.05
2018-07-10T10:15:11.635Z,94962.63
2018-07-10T10:17:37.678Z,94949.41
2018-07-10T10:20:03.730Z,94957.11
2018-07-10T10:22:29.739Z,94958.09
2018-07-10T10:24:55.773Z,94952.97
2018-07-10T10:27:21.802Z,94956.70
2018-07-10T10:29:47.888Z,94963.20
2018-07-10T10:32:13.902Z,94969.94
2018-07-10T10:34:39.959Z,94968.73
2018-07-10T10:37:05.976Z,94961.83
2018-07-10T10:39:31.997Z,94956.88
2018-07-10T10:41:58.106Z,94961.02
2018-07-10T10:44:24.145Z,94951.36
2018-07-10T10:46:50.182Z,94953.14
2018-07-10T10:49:16.209Z,94950.38
2018-07-10T10:51:42.251Z,94951.96
2018-07-10T10:54:08.269Z,94944.86
2018-07-10T10:56:34.372Z,94951.19
2018-07-10T10:59:00.503Z,94945.83
2018-07-10T11:01:26.563Z,94954.72
2018-07-10T11:03:52.571Z,94945.06
2018-07-10T11:06:18.599Z,94953.74
2018-07-10T11:08:47.973Z,94947.82
2018-07-10T11:11:13.983Z,94954.72
2018-07-10T11:13:40.203Z,94948.39
2018-07-10T11:16:06.534Z,94950.75
2018-07-10T11:18:32.622Z,94949.38
2018-07-10T11:20:58.659Z,94942.88
2018-07-10T11:23:24.670Z,94937.36
2018-07-10T11:25:50.718Z,94935.40
2018-07-10T11:28:16.889Z,94928.30
2018-07-10T11:30:43.120Z,94932.44
2018-07-10T11:33:09.506Z,94930.08
2018-07-10T11:35:36.289Z,94925.56
2018-07-10T11:38:02.283Z,94920.05
2018-07-10T11:40:28.329Z,94921.25
2018-07-10T11:42:54.458Z,94919.88
2018-07-10T11:45:20.826Z,94923.64
2018-07-10T11:47:46.920Z,94919.32
2018-07-10T11:50:13.002Z,94919.50
2018-07-10T11:52:41.439Z,94921.68
2018-07-10T11:55:07.442Z,94931.74
2018-07-10T11:57:33.480Z,94924.84
2018-07-10T11:59:59.528Z,94928.00
2018-07-10T12:02:25.594Z,94932.14
2018-07-10T12:04:51.782Z,94933.13
2018-07-10T12:07:17.781Z,94935.48
2018-07-10T12:09:43.808Z,94932.32
2018-07-10T12:12:11.121Z,94925.42
2018-07-10T12:14:36.214Z,94928.00
2018-07-10T12:17:02.245Z,94924.04
2018-07-10T12:19:30.796Z,94933.70
2018-07-10T12:21:56.932Z,94937.47
2018-07-10T12:24:22.959Z,94930.16
2018-07-10T12:26:51.112Z,94928.03
2018-07-10T12:29:15.611Z,94937.30
2018-07-10T12:31:41.736Z,94938.84
2018-07-10T12:34:07.867Z,94936.28
2018-07-10T12:36:34.355Z,94942.01
2018-07-10T12:39:00.339Z,94941.81
2018-07-10T12:41:26.358Z,94952.85
2018-07-10T12:43:52.555Z,94945.95
2018-07-10T12:46:19.412Z,94948.88
2018-07-10T12:48:45.947Z,94947.91
2018-07-10T12:51:11.964Z,94946.92
2018-07-10T12:53:37.964Z,94952.05
2018-07-10T12:56:04.341Z,94944.17
2018-07-10T12:58:31.014Z,94951.50
2018-07-10T13:00:57.039Z,94950.70
2018-07-10T13:03:23.042Z,94950.34
2018-07-10T13:05:49.180Z,94952.94
2018-07-10T13:08:15.293Z,94952.08
2018-07-10T13:10:41.303Z,94950.86
2018-07-10T13:13:07.387Z,94952.25
2018-07-10T13:15:34.136Z,94958.58
2018-07-10T13:18:02.462Z,94951.33
2018-07-10T13:20:26.250Z,94949.14
2018-07-10T13:22:52.345Z,94945.80
2018-07-10T13:25:19.426Z,94955.89
2018-07-10T13:27:45.515Z,94946.23
2018-07-10T13:30:11.603Z,94955.33
2018-07-10T13:32:37.648Z,94948.62
2018-07-10T13:35:03.900Z,94942.52
2018-07-10T13:37:30.131Z,94937.41
2018-07-10T13:39:56.145Z,94943.91
2018-07-10T13:42:22.425Z,94947.44
2018-07-10T13:44:48.393Z,94947.67
2018-07-10T13:47:14.634Z,94946.31
2018-07-10T13:49:40.613Z,94943.20
2018-07-10T13:52:06.622Z,94940.65
2018-07-10T13:54:32.630Z,94944.19
2018-07-10T13:56:58.659Z,94940.02
2018-07-10T13:59:24.633Z,94938.44
2018-07-10T14:01:50.635Z,94950.28
2018-07-10T14:04:16.687Z,94939.44
2018-07-10T14:06:42.658Z,94951.31
2018-07-10T14:09:08.657Z,94942.05
2018-07-10T14:11:34.748Z,94939.87
2018-07-10T14:14:00.743Z,94955.03
2018-07-10T14:16:26.803Z,94941.39
2018-07-10T14:18:52.808Z,94937.05
2018-07-10T14:21:18.812Z,94944.53
2018-07-10T14:23:44.819Z,94938.20
2018-07-10T14:26:10.824Z,94941.57
2018-07-10T14:28:36.827Z,94942.72
2018-07-10T14:31:02.860Z,94944.70
2018-07-10T14:33:28.866Z,94941.55
2018-07-10T14:35:54.907Z,94943.09
2018-07-10T14:38:20.927Z,94933.44
2018-07-10T14:40:46.945Z,94929.52
2018-07-10T14:43:12.995Z,94936.22
2018-07-10T14:45:39.002Z,94949.63
2018-07-10T14:48:05.006Z,94942.15
2018-07-10T14:50:31.059Z,94944.30
2018-07-10T14:52:57.041Z,94945.08
2018-07-10T14:55:23.068Z,94944.33
2018-07-10T14:57:49.073Z,94947.09
2018-07-10T15:00:15.137Z,94941.98
2018-07-10T15:02:41.284Z,94941.95
2018-07-10T15:05:07.421Z,94936.83
2018-07-10T15:07:33.539Z,94937.43
2018-07-10T15:09:59.756Z,94935.45
2018-07-10T15:12:25.749Z,94929.95
2018-07-10T15:14:52.018Z,94931.56
2018-07-10T15:17:17.831Z,94937.89
2018-07-10T15:19:43.835Z,94933.75
2018-07-10T15:22:09.921Z,94932.16
2018-07-10T15:24:35.940Z,94938.89
2018-07-10T15:27:01.961Z,94938.69
2018-07-10T15:29:28.213Z,94939.49
2018-07-10T15:31:54.220Z,94931.78
2018-07-10T15:34:20.188Z,94940.06
2018-07-10T15:36:46.240Z,94942.25
2018-07-10T15:39:12.241Z,94941.70
2018-07-10T15:41:38.243Z,94940.55
2018-07-10T15:44:04.259Z,94947.89
2018-07-10T15:46:30.258Z,94948.11
2018-07-10T15:48:56.269Z,94945.95
2018-07-10T15:51:22.361Z,94949.72
2018-07-10T15:53:48.413Z,94952.88
2018-07-10T15:56:14.415Z,94951.70
2018-07-10T15:58:40.467Z,94956.65
2018-07-10T16:01:06.462Z,94955.84
2018-07-10T16:03:32.476Z,94952.88
2018-07-10T16:05:58.672Z,94953.84
2018-07-10T16:08:24.670Z,94965.86
2018-07-10T16:10:50.728Z,94967.81
2018-07-10T16:13:16.711Z,94960.34
2018-07-10T16:15:42.834Z,94955.05
2018-07-10T16:18:08.862Z,94967.64
2018-07-10T16:20:34.954Z,94964.71
2018-07-10T16:23:01.256Z,94962.13
2018-07-10T16:25:27.319Z,94966.06
2018-07-10T16:27:53.326Z,94967.05
2018-07-10T16:30:20.754Z,94966.44
2018-07-10T16:32:47.855Z,94970.41
2018-07-10T16:35:13.890Z,94973.34
2018-07-10T16:37:41.131Z,94976.31
2018-07-10T16:40:08.105Z,94979.47
2018-07-10T16:42:36.257Z,94977.69
2018-07-10T16:45:02.292Z,94980.22
2018-07-10T16:47:28.328Z,94981.43
2018-07-10T16:49:54.341Z,94988.73
2018-07-10T16:52:20.352Z,94991.90
2018-07-10T16:54:46.514Z,94988.33
2018-07-10T16:57:12.518Z,94993.48
2018-07-10T16:59:38.636Z,94989.14
2018-07-10T17:02:04.652Z,94990.52
2018-07-10T17:04:31.483Z,94985.16
2018-07-10T17:06:58.591Z,94985.57
2018-07-10T17:09:25.974Z,94990.69
2018-07-10T17:11:52.734Z,94990.89
2018-07-10T17:14:19.537Z,94986.75
2018-07-10T17:16:45.542Z,94989.28
2018-07-10T17:19:11.557Z,94989.52
2018-07-10T17:21:37.863Z,94991.47
2018-07-10T17:24:04.064Z,94996.99
2018-07-10T17:29:17.161Z,94992.07
2018-07-10T17:31:44.211Z,94985.57
2018-07-10T17:34:11.328Z,94994.28
2018-07-10T17:36:38.595Z,94989.31
2018-07-10T17:39:05.528Z,94994.83
2018-07-10T17:41:33.503Z,94996.42
2018-07-10T17:44:00.444Z,95001.94
2018-07-10T17:54:11.823Z,94999.35
2018-07-10T17:56:37.841Z,95004.47
2018-07-10T17:59:03.867Z,94998.14
2018-07-10T18:01:29.937Z,95003.67
2018-07-10T18:03:55.937Z,95006.83
2018-07-10T18:06:22.381Z,95001.34
2018-07-10T18:08:48.641Z,95000.94
2018-07-10T18:11:14.948Z,95003.67
2018-07-10T18:13:41.628Z,95010.57
2018-07-10T18:16:07.747Z,95013.53
2018-07-10T18:18:34.292Z,95018.11
2018-07-10T18:21:03.582Z,95017.70
2018-07-10T18:23:30.129Z,95018.69
2018-07-10T18:25:56.938Z,95020.88
2018-07-10T18:28:23.786Z,95024.61
2018-07-10T18:30:50.792Z,95025.98
2018-07-10T18:33:17.460Z,95032.66
2018-07-10T18:35:43.556Z,95037.81
2018-07-10T18:38:10.479Z,95040.34
2018-07-10T18:40:36.509Z,95048.05
2018-07-10T18:43:02.790Z,95050.62
2018-07-10T18:45:28.949Z,95047.66
2018-07-10T18:47:54.976Z,95046.27
2018-07-10T18:50:24.588Z,95050.41
2018-07-10T18:52:50.935Z,95053.34
2018-07-10T18:55:16.943Z,95057.15
2018-07-10T18:57:43.750Z,95053.98
2018-07-10T19:00:10.901Z,95057.72
2018-07-10T19:02:37.118Z,95056.34
2018-07-10T19:05:03.466Z,95053.78
2018-07-10T19:07:29.998Z,95060.89
2018-07-10T19:12:41.810Z,95064.39
2018-07-10T19:15:15.548Z,95066.17
2018-07-10T19:17:42.054Z,95069.55
2018-07-10T19:20:08.902Z,95066.58
2018-07-10T19:22:34.944Z,95066.58
2018-07-10T19:25:00.966Z,95070.72
2018-07-10T19:27:27.174Z,95069.75
2018-07-10T19:29:53.221Z,95074.46
2018-07-10T19:32:20.140Z,95072.68
2018-07-10T19:34:46.137Z,95071.13
2018-07-10T19:37:16.097Z,95073.08
2018-07-10T19:39:43.040Z,95072.51
2018-07-10T19:42:09.052Z,95072.51
2018-07-10T19:44:35.903Z,95078.44
2018-07-10T19:47:01.910Z,95080.22
2018-07-10T19:49:32.611Z,95074.87
2018-07-10T19:51:59.214Z,95075.09
2018-07-10T19:54:25.717Z,95070.55
2018-07-10T19:56:51.933Z,95072.70
2018-07-10T19:59:17.936Z,95075.88
2018-07-10T20:01:43.911Z,95082.78
2018-07-10T20:04:09.944Z,95087.52
2018-07-10T20:06:36.058Z,95090.48
2018-07-10T20:09:02.021Z,95085.55
2018-07-10T20:11:28.026Z,95079.61
2018-07-10T20:13:54.035Z,95082.58
2018-07-10T20:16:20.058Z,95086.31
2018-07-10T20:18:46.121Z,95088.27
2018-07-10T20:21:12.075Z,95086.48
2018-07-10T20:23:38.129Z,95093.02
2018-07-10T20:26:04.127Z,95097.53
2018-07-10T20:28:30.209Z,95100.70
2018-07-10T20:30:56.190Z,95092.01
2018-07-10T20:33:22.209Z,95096.36
2018-07-10T20:35:48.246Z,95097.16
2018-07-10T20:38:14.259Z,95103.26
2018-07-10T20:40:40.285Z,95100.09
2018-07-10T20:43:06.669Z,95103.43
2018-07-10T20:45:32.741Z,95101.64
2018-07-10T20:47:58.764Z,95103.43
2018-07-10T20:50:24.763Z,95098.71
2018-07-10T20:52:50.768Z,95098.71
2018-07-10T20:55:16.781Z,95101.07
2018-07-10T20:57:42.794Z,95105.05
2018-07-10T21:00:08.794Z,95101.30
2018-07-10T21:02:34.806Z,95104.64
2018-07-10T21:05:00.811Z,95104.23
2018-07-10T21:07:26.822Z,95109.36
2018-07-10T21:09:52.833Z,95108.55
2018-07-10T21:12:18.843Z,95116.66
2018-07-10T21:14:44.844Z,95118.65
2018-07-10T21:17:10.872Z,95121.81
2018-07-10T21:19:36.916Z,95118.25
2018-07-10T21:22:02.894Z,95117.88
2018-07-10T21:24:28.865Z,95121.78
2018-07-10T21:26:54.883Z,95120.00
2018-07-10T21:29:20.879Z,95121.38
2018-07-10T21:31:46.889Z,95123.37
2018-07-10T21:34:12.883Z,95117.03
2018-07-10T21:36:38.883Z,95113.88
2018-07-10T21:39:04.907Z,95113.06
2018-07-10T21:41:30.902Z,95106.16
2018-07-10T21:43:56.915Z,95109.13
2018-07-10T21:46:22.919Z,95109.30
2018-07-10T21:48:48.928Z,95107.91
2018-07-10T21:51:14.932Z,95109.30
2018-07-10T21:53:40.944Z,95103.40
2018-07-10T21:56:06.946Z,95112.09
2018-07-10T21:58:32.944Z,95107.17
2018-07-10T22:00:58.948Z,95111.34
2018-07-10T22:03:24.968Z,95111.38
2018-07-10T22:05:50.974Z,95113.39
2018-07-10T22:08:16.985Z,95112.61
2018-07-10T22:10:42.990Z,95103.76
2018-07-10T22:13:09.057Z,95106.55
2018-07-10T22:15:35.049Z,95105.94
2018-07-10T22:18:01.049Z,95106.34
2018-07-10T22:20:27.055Z,95110.31
2018-07-10T22:22:53.089Z,95104.22
2018-07-10T22:25:19.099Z,95105.97
2018-07-10T22:27:45.101Z,95104.42
2018-07-10T22:30:11.114Z,95106.61
2018-07-10T22:32:37.120Z,95103.64
2018-07-10T22:35:03.121Z,95094.61
2018-07-10T22:37:29.153Z,95100.14
2018-07-10T22:39:55.255Z,95093.84
2018-07-10T22:42:21.258Z,95091.48
2018-07-10T22:44:47.270Z,95092.86
2018-07-10T22:47:13.277Z,95090.09
2018-07-10T22:49:39.279Z,95085.75
2018-07-10T22:52:05.289Z,95089.32
2018-07-10T22:54:31.292Z,95087.97
2018-07-10T22:56:57.288Z,95092.95
2018-07-10T22:59:23.295Z,95091.16
2018-07-10T23:01:49.299Z,95095.34
2018-07-10T23:04:15.302Z,95093.55
2018-07-10T23:06:41.315Z,95092.98
2018-07-10T23:11:40.395Z,95103.25
2018-07-10T23:14:06.404Z,95105.03
2018-07-10T23:16:32.402Z,95101.06
2018-07-10T23:18:58.406Z,95101.67
2018-07-10T23:21:24.417Z,95107.97
2018-07-10T23:23:50.431Z,95107.59
2018-07-10T23:26:16.436Z,95118.48
2018-07-10T23:28:42.448Z,95113.73
2018-07-10T23:31:08.463Z,95120.06
2018-07-10T23:33:34.465Z,95119.25
2018-07-10T23:36:00.570Z,95118.45
2018-07-10T23:38:26.567Z,95108.58
2018-07-10T23:40:52.572Z,95105.98
2018-07-10T23:43:18.584Z,95101.44
2018-07-10T23:45:44.630Z,95105.38
2018-07-10T23:48:10.627Z,95100.83
2018-07-10T23:50:36.693Z,95103.36
2018-07-10T23:53:02.639Z,95101.17
2018-07-10T23:55:28.643Z,95101.17
2018-07-10T23:57:54.653Z,95098.81
